createdAt,value
2023-05-02T00:00:48.566Z,71.27
2023-05-02T00:03:17.712Z,70.42
2023-05-02T00:05:46.238Z,70.66
2023-05-02T00:08:14.625Z,71.21
2023-05-02T00:10:43.047Z,71.09
2023-05-02T00:13:11.346Z,73.12
2023-05-02T00:15:39.411Z,71.75
2023-05-02T00:18:08.475Z,71.13
2023-05-02T00:20:36.928Z,70.96
2023-05-02T00:23:05.187Z,71.91
2023-05-02T00:25:33.754Z,73.31
2023-05-02T00:28:01.979Z,73.98
2023-05-02T00:30:30.110Z,73.25
2023-05-02T00:32:58.922Z,73.92
2023-05-02T00:35:27.396Z,74.37
2023-05-02T00:37:55.894Z,75.59
2023-05-02T00:40:24.787Z,73.80
2023-05-02T00:42:53.604Z,72.88
2023-05-02T00:45:21.680Z,72.10
2023-05-02T00:47:51.056Z,70.37
2023-05-02T00:50:19.306Z,69.38
2023-05-02T00:52:47.505Z,71.96
2023-05-02T00:55:16.637Z,71.05
2023-05-02T00:57:44.856Z,70.76
2023-05-02T01:00:13.582Z,71.02
2023-05-02T01:02:58.768Z,71.04
2023-05-02T01:05:49.021Z,71.00
2023-05-02T01:08:36.176Z,71.09
2023-05-02T01:11:16.550Z,74.49
2023-05-02T01:13:46.344Z,73.16
2023-05-02T01:16:17.250Z,71.32
2023-05-02T01:18:50.148Z,71.31
2023-05-02T01:21:19.096Z,71.05
2023-05-02T01:24:11.047Z,72.93
2023-05-02T01:27:15.766Z,71.92
2023-05-02T01:29:45.561Z,72.12
2023-05-02T01:32:16.287Z,72.22
2023-05-02T01:34:47.552Z,69.59
2023-05-02T01:37:18.503Z,71.97
2023-05-02T01:39:49.045Z,71.53
2023-05-02T01:42:19.525Z,70.08
2023-05-02T01:44:49.710Z,70.02
2023-05-02T01:47:19.911Z,71.15
2023-05-02T01:49:49.812Z,71.26
2023-05-02T01:52:23.046Z,70.74
2023-05-02T01:54:53.764Z,71.10
2023-05-02T01:57:21.870Z,73.47
2023-05-02T01:59:51.543Z,73.06
2023-05-02T02:02:21.461Z,73.42
2023-05-02T02:04:51.824Z,73.13
2023-05-02T02:07:20.267Z,72.40
2023-05-02T02:09:48.560Z,72.64
2023-05-02T02:12:24.726Z,71.60
2023-05-02T02:15:14.833Z,71.36
2023-05-02T02:17:46.720Z,71.22
2023-05-02T02:20:17.066Z,70.65
2023-05-02T02:22:46.681Z,71.09
2023-05-02T02:25:17.276Z,71.36
2023-05-02T02:27:47.326Z,69.88
2023-05-02T02:30:16.590Z,70.24
2023-05-02T02:32:44.996Z,68.93
2023-05-02T02:35:13.951Z,68.54
2023-05-02T02:37:52.049Z,68.71
2023-05-02T02:40:25.171Z,70.14
2023-05-02T02:43:20.773Z,70.94
2023-05-02T02:46:07.899Z,72.20
2023-05-02T02:48:54.591Z,74.59
2023-05-02T02:51:35.894Z,71.76
2023-05-02T02:54:26.814Z,76.27
2023-05-02T02:57:10.367Z,72.45
2023-05-02T02:59:44.892Z,74.83
2023-05-02T03:02:17.331Z,74.60
2023-05-02T03:04:47.460Z,73.03
2023-05-02T03:07:16.133Z,72.27
2023-05-02T03:09:46.507Z,76.19
2023-05-02T03:12:15.718Z,75.02
2023-05-02T03:14:44.587Z,70.47
2023-05-02T03:17:12.878Z,72.16
2023-05-02T03:19:42.276Z,72.63
2023-05-02T03:22:10.883Z,71.07
2023-05-02T03:24:39.150Z,73.35
2023-05-02T03:27:07.649Z,75.01
2023-05-02T03:29:36.850Z,73.32
2023-05-02T03:32:05.579Z,74.14
2023-05-02T03:34:34.860Z,76.00
2023-05-02T03:37:03.492Z,75.33
2023-05-02T03:39:32.192Z,75.36
2023-05-02T03:42:01.804Z,75.58
2023-05-02T03:44:30.503Z,76.43
2023-05-02T03:46:58.687Z,74.95
2023-05-02T03:49:27.629Z,75.49
2023-05-02T03:51:56.403Z,75.75
2023-05-02T03:54:25.361Z,75.05
2023-05-02T03:56:54.855Z,77.77
2023-05-02T03:59:24.317Z,75.75
2023-05-02T04:01:52.793Z,75.98
2023-05-02T04:04:22.239Z,77.54
2023-05-02T04:06:50.698Z,74.22
2023-05-02T04:09:25.418Z,71.36
2023-05-02T04:11:54.844Z,77.36
2023-05-02T04:14:23.814Z,75.44
2023-05-02T04:16:53.592Z,76.32
2023-05-02T04:19:22.758Z,77.03
2023-05-02T04:21:51.397Z,76.24
2023-05-02T04:24:19.929Z,74.79
2023-05-02T04:26:49.042Z,78.12
2023-05-02T04:29:17.249Z,75.58
2023-05-02T04:31:45.751Z,75.25
2023-05-02T04:34:15.065Z,75.36
2023-05-02T04:36:46.727Z,73.52
2023-05-02T04:39:16.178Z,75.74
2023-05-02T04:41:46.343Z,75.59
2023-05-02T04:44:15.419Z,72.80
2023-05-02T04:46:44.901Z,72.70
2023-05-02T04:49:14.016Z,74.15
2023-05-02T04:51:42.937Z,76.16
2023-05-02T04:54:12.172Z,75.36
2023-05-02T04:56:41.550Z,72.83
2023-05-02T04:59:10.562Z,69.93
2023-05-02T05:01:38.999Z,68.48
2023-05-02T05:04:08.637Z,68.03
2023-05-02T05:06:38.072Z,67.81
2023-05-02T05:09:07.173Z,66.58
2023-05-02T05:11:35.754Z,68.13
2023-05-02T05:14:05.332Z,66.58
2023-05-02T05:16:34.855Z,68.16
2023-05-02T05:19:04.398Z,69.20
2023-05-02T05:21:32.934Z,70.20
2023-05-02T05:24:02.359Z,68.04
2023-05-02T05:26:30.972Z,67.37
2023-05-02T05:28:59.563Z,66.12
2023-05-02T05:31:28.583Z,64.73
2023-05-02T05:33:57.784Z,64.84
2023-05-02T05:36:26.690Z,65.39
2023-05-02T05:38:54.856Z,66.37
2023-05-02T05:41:24.800Z,66.04
2023-05-02T05:43:54.294Z,64.50
2023-05-02T05:46:23.267Z,65.58
2023-05-02T05:48:54.960Z,66.22
2023-05-02T05:51:24.574Z,66.74
2023-05-02T05:53:52.912Z,68.42
2023-05-02T05:56:22.948Z,69.95
2023-05-02T05:58:52.481Z,69.66
2023-05-02T06:01:20.750Z,68.41
2023-05-02T06:03:50.030Z,67.54
2023-05-02T06:06:19.818Z,68.30
2023-05-02T06:08:48.674Z,68.19
2023-05-02T06:11:16.945Z,68.59
2023-05-02T06:13:45.642Z,66.97
2023-05-02T06:16:15.162Z,67.31
2023-05-02T06:18:43.393Z,66.62
2023-05-02T06:21:11.790Z,67.37
2023-05-02T06:23:41.105Z,67.16
2023-05-02T06:26:10.346Z,64.96
2023-05-02T06:28:38.919Z,66.84
2023-05-02T06:31:07.809Z,65.41
2023-05-02T06:33:36.726Z,65.19
2023-05-02T06:36:05.458Z,63.84
2023-05-02T06:38:33.904Z,64.01
2023-05-02T06:41:01.952Z,63.20
2023-05-02T06:43:30.230Z,64.05
2023-05-02T06:45:58.862Z,63.01
2023-05-02T06:48:27.013Z,63.02
2023-05-02T06:50:55.728Z,61.53
2023-05-02T06:53:24.110Z,57.62
2023-05-02T06:55:52.391Z,59.32
2023-05-02T06:58:20.673Z,59.06
2023-05-02T07:00:50.473Z,58.33
2023-05-02T07:03:18.968Z,57.21
2023-05-02T07:05:47.227Z,56.76
2023-05-02T07:08:15.645Z,53.33
2023-05-02T07:10:43.877Z,55.77
2023-05-02T07:13:12.226Z,56.29
2023-05-02T07:15:40.618Z,52.86
2023-05-02T07:18:08.766Z,53.59
2023-05-02T07:20:38.972Z,52.57
2023-05-02T07:23:07.567Z,55.90
2023-05-02T07:25:36.711Z,56.22
2023-05-02T07:28:05.603Z,53.94
2023-05-02T07:30:34.210Z,54.33
2023-05-02T07:33:02.835Z,55.15
2023-05-02T07:35:31.446Z,52.81
2023-05-02T07:38:00.013Z,53.50
2023-05-02T07:40:28.665Z,56.52
2023-05-02T07:42:58.181Z,56.27
2023-05-02T07:45:26.816Z,51.53
2023-05-02T07:47:55.099Z,50.54
2023-05-02T07:50:24.196Z,50.83
2023-05-02T07:52:55.316Z,49.01
2023-05-02T07:55:27.396Z,45.88
2023-05-02T07:57:56.138Z,47.95
2023-05-02T08:00:24.505Z,47.70
2023-05-02T08:02:53.376Z,47.16
2023-05-02T08:05:21.961Z,45.28
2023-05-02T08:07:49.990Z,44.24
2023-05-02T08:10:19.444Z,45.08
2023-05-02T08:12:47.586Z,43.93
2023-05-02T08:15:15.809Z,44.43
2023-05-02T08:17:44.441Z,43.39
2023-05-02T08:20:12.898Z,42.94
2023-05-02T08:22:41.072Z,42.29
2023-05-02T08:25:10.033Z,43.22
2023-05-02T08:27:38.340Z,39.50
2023-05-02T08:30:07.725Z,41.93
2023-05-02T08:32:37.563Z,39.41
2023-05-02T08:35:06.788Z,40.64
2023-05-02T08:37:35.025Z,38.56
2023-05-02T08:40:04.546Z,39.49
2023-05-02T08:42:33.674Z,39.75
2023-05-02T08:45:02.613Z,40.00
2023-05-02T08:47:32.243Z,38.97
2023-05-02T08:50:01.596Z,38.13
2023-05-02T08:52:32.719Z,38.39
2023-05-02T08:55:03.882Z,39.75
2023-05-02T08:57:32.832Z,40.28
2023-05-02T09:00:01.834Z,41.09
2023-05-02T09:03:03.720Z,41.43
2023-05-02T09:05:39.782Z,44.58
2023-05-02T09:08:08.765Z,42.17
2023-05-02T09:10:37.816Z,40.77
2023-05-02T09:13:28.383Z,42.19
2023-05-02T09:16:00.619Z,38.46
2023-05-02T09:18:31.100Z,38.92
2023-05-02T09:21:01.238Z,39.59
2023-05-02T09:23:41.029Z,40.41
2023-05-02T09:26:14.967Z,38.64
2023-05-02T09:28:54.143Z,39.83
2023-05-02T09:31:49.915Z,40.51
2023-05-02T09:34:17.451Z,40.41
2023-05-02T09:36:51.982Z,39.74
2023-05-02T09:39:25.847Z,38.90
2023-05-02T09:41:55.198Z,39.97
2023-05-02T09:44:36.518Z,37.96
2023-05-02T09:47:06.898Z,41.00
2023-05-02T09:49:45.059Z,38.83
2023-05-02T09:52:18.321Z,43.03
2023-05-02T09:54:47.226Z,42.52
2023-05-02T09:57:16.293Z,39.47
2023-05-02T09:59:55.893Z,38.59
2023-05-02T10:02:25.189Z,40.25
2023-05-02T10:04:57.101Z,41.97
2023-05-02T10:07:26.492Z,43.49
2023-05-02T10:09:58.577Z,41.34
2023-05-02T10:12:30.736Z,43.87
2023-05-02T10:15:02.998Z,44.34
2023-05-02T10:17:34.234Z,43.00
2023-05-02T10:20:07.903Z,43.33
2023-05-02T10:22:37.268Z,41.86
2023-05-02T10:25:07.078Z,42.15
2023-05-02T10:27:35.521Z,40.58
2023-05-02T10:30:06.549Z,40.91
2023-05-02T10:32:38.294Z,40.80
2023-05-02T10:35:08.304Z,40.06
2023-05-02T10:37:40.517Z,39.22
2023-05-02T10:40:13.630Z,39.14
2023-05-02T10:42:48.291Z,39.44
2023-05-02T10:45:35.921Z,41.29
2023-05-02T10:48:13.595Z,40.69
2023-05-02T10:50:58.163Z,40.68
2023-05-02T10:53:33.602Z,40.78
2023-05-02T10:56:22.199Z,43.10
2023-05-02T10:58:53.853Z,37.70
2023-05-02T11:01:26.324Z,38.98
2023-05-02T11:04:01.716Z,39.05
2023-05-02T11:06:53.796Z,39.52
2023-05-02T11:09:22.553Z,38.23
2023-05-02T11:11:55.554Z,38.92
2023-05-02T11:14:33.467Z,38.87
2023-05-02T11:17:01.656Z,39.60
2023-05-02T11:19:54.251Z,38.04
2023-05-02T11:22:24.063Z,38.92
2023-05-02T11:24:53.149Z,38.09
2023-05-02T11:27:30.716Z,39.76
2023-05-02T11:30:05.838Z,40.52
2023-05-02T11:32:49.836Z,40.86
2023-05-02T11:35:20.551Z,41.86
2023-05-02T11:37:59.984Z,40.79
2023-05-02T11:40:29.354Z,39.04
2023-05-02T11:42:59.942Z,42.34
2023-05-02T11:45:36.603Z,40.61
2023-05-02T11:48:06.993Z,40.47
2023-05-02T11:50:51.047Z,40.74
2023-05-02T11:53:25.608Z,39.77
2023-05-02T11:55:59.101Z,43.38
2023-05-02T11:58:33.510Z,43.02
2023-05-02T12:01:16.589Z,41.54
2023-05-02T12:03:45.975Z,42.50
2023-05-02T12:06:19.396Z,42.97
2023-05-02T12:08:49.365Z,41.94
2023-05-02T12:11:17.672Z,42.26
2023-05-02T12:13:48.712Z,44.52
2023-05-02T12:16:18.404Z,43.71
2023-05-02T12:18:48.018Z,43.42
2023-05-02T12:21:18.063Z,42.16
2023-05-02T12:23:46.888Z,45.36
2023-05-02T12:26:25.753Z,43.09
2023-05-02T12:28:55.228Z,44.18
2023-05-02T12:31:23.982Z,45.14
2023-05-02T12:33:55.474Z,46.10
2023-05-02T12:36:24.722Z,45.37
2023-05-02T12:38:59.930Z,43.71
2023-05-02T12:41:37.471Z,43.65
2023-05-02T12:44:07.848Z,44.77
2023-05-02T12:46:36.755Z,44.67
2023-05-02T12:49:08.531Z,44.30
2023-05-02T12:51:38.867Z,44.17
2023-05-02T12:54:07.455Z,44.34
2023-05-02T12:56:39.963Z,43.91
2023-05-02T12:59:09.599Z,45.58
2023-05-02T13:01:37.832Z,43.93
2023-05-02T13:04:06.764Z,43.06
2023-05-02T13:06:37.956Z,44.48
2023-05-02T13:09:07.549Z,41.20
2023-05-02T13:11:36.684Z,41.14
2023-05-02T13:14:05.984Z,42.48
2023-05-02T13:16:36.822Z,41.66
2023-05-02T13:19:05.873Z,43.02
2023-05-02T13:21:34.021Z,41.44
2023-05-02T13:24:04.377Z,41.20
2023-05-02T13:26:33.531Z,40.48
2023-05-02T13:29:02.044Z,42.07
2023-05-02T13:31:30.634Z,41.20
2023-05-02T13:33:59.649Z,42.11
2023-05-02T13:36:27.944Z,44.34
2023-05-02T13:38:56.821Z,44.88
2023-05-02T13:41:26.141Z,46.76
2023-05-02T13:43:55.369Z,46.79
2023-05-02T13:46:23.927Z,48.70
2023-05-02T13:48:52.616Z,48.00
2023-05-02T13:51:21.060Z,48.20
2023-05-02T13:53:49.422Z,47.98
2023-05-02T13:56:18.627Z,49.63
2023-05-02T13:58:46.925Z,48.60
2023-05-02T14:01:15.778Z,48.97
2023-05-02T14:03:45.836Z,51.29
2023-05-02T14:06:14.138Z,50.22
2023-05-02T14:08:42.984Z,48.11
2023-05-02T14:11:11.736Z,47.86
2023-05-02T14:13:40.260Z,45.70
2023-05-02T14:16:08.530Z,43.01
2023-05-02T14:18:37.058Z,42.87
2023-05-02T14:21:05.973Z,45.10
2023-05-02T14:23:35.440Z,45.14
2023-05-02T14:26:04.213Z,47.14
2023-05-02T14:28:32.711Z,46.12
2023-05-02T14:31:14.389Z,44.37
2023-05-02T14:33:43.213Z,44.11
2023-05-02T14:36:12.635Z,43.27
2023-05-02T14:38:41.076Z,43.97
2023-05-02T14:41:10.136Z,50.96
2023-05-02T14:43:39.648Z,54.29
2023-05-02T14:46:08.037Z,51.66
2023-05-02T14:48:36.475Z,66.73
2023-05-02T14:51:06.697Z,62.25
2023-05-02T14:53:35.158Z,77.85
2023-05-02T14:56:04.117Z,81.28
2023-05-02T14:58:32.616Z,84.27
2023-05-02T15:01:01.865Z,86.50
2023-05-02T15:03:30.548Z,88.90
2023-05-02T15:05:59.292Z,79.78
2023-05-02T15:08:27.957Z,73.18
2023-05-02T15:10:57.138Z,77.20
2023-05-02T15:13:25.305Z,78.92
2023-05-02T15:15:55.715Z,81.41
2023-05-02T15:18:24.341Z,88.31
2023-05-02T15:20:52.660Z,87.27
2023-05-02T15:23:21.686Z,91.25
2023-05-02T15:25:50.218Z,86.56
2023-05-02T15:28:18.376Z,86.84
2023-05-02T15:30:46.952Z,90.42
2023-05-02T15:33:16.484Z,91.39
2023-05-02T15:35:57.100Z,92.23
2023-05-02T15:38:25.956Z,89.20
2023-05-02T15:40:57.748Z,87.39
2023-05-02T15:43:26.864Z,80.96
2023-05-02T15:45:56.646Z,87.83
2023-05-02T15:48:28.427Z,91.00
2023-05-02T15:50:57.587Z,85.00
2023-05-02T15:53:25.863Z,86.76
2023-05-02T15:55:54.633Z,82.70
2023-05-02T15:58:23.197Z,83.10
2023-05-02T16:00:52.578Z,76.75
2023-05-02T16:03:21.695Z,76.12
2023-05-02T16:05:52.843Z,81.37
2023-05-02T16:08:21.499Z,79.02
2023-05-02T16:10:50.319Z,82.91
2023-05-02T16:13:19.137Z,83.52
2023-05-02T16:15:48.472Z,74.62
2023-05-02T16:18:16.899Z,66.04
2023-05-02T16:20:45.171Z,74.08
2023-05-02T16:23:13.615Z,78.75
2023-05-02T16:25:42.023Z,82.70
2023-05-02T16:28:10.205Z,83.97
2023-05-02T16:30:38.677Z,86.78
2023-05-02T16:33:07.434Z,87.01
2023-05-02T16:35:35.482Z,88.94
2023-05-02T16:38:04.161Z,89.76
2023-05-02T16:40:32.715Z,90.56
2023-05-02T16:43:01.514Z,88.99
2023-05-02T16:45:29.912Z,89.79
2023-05-02T16:48:03.678Z,87.96
2023-05-02T16:50:32.363Z,87.81
2023-05-02T16:53:00.934Z,85.97
2023-05-02T16:55:29.650Z,87.46
2023-05-02T16:57:58.134Z,90.62
2023-05-02T17:00:26.532Z,90.18
2023-05-02T17:02:57.271Z,89.18
2023-05-02T17:05:26.197Z,83.92
2023-05-02T17:07:54.483Z,81.92
2023-05-02T17:10:24.095Z,78.84
2023-05-02T17:12:55.982Z,81.20
2023-05-02T17:15:24.073Z,78.90
2023-05-02T17:17:52.912Z,80.57
2023-05-02T17:20:21.643Z,83.74
2023-05-02T17:22:49.878Z,74.90
2023-05-02T17:25:18.756Z,73.85
2023-05-02T17:27:46.932Z,71.81
2023-05-02T17:30:15.334Z,70.59
2023-05-02T17:32:45.459Z,70.57
2023-05-02T17:35:14.438Z,70.14
2023-05-02T17:37:42.719Z,71.32
2023-05-02T17:40:12.526Z,70.05
2023-05-02T17:42:49.099Z,70.74
2023-05-02T17:45:18.189Z,71.56
2023-05-02T17:47:46.698Z,72.83
2023-05-02T17:50:15.281Z,74.48
2023-05-02T17:52:44.268Z,68.57
2023-05-02T17:55:12.526Z,68.64
2023-05-02T17:57:40.817Z,70.41
2023-05-02T18:00:10.201Z,73.55
2023-05-02T18:02:39.999Z,74.51
2023-05-02T18:05:08.993Z,75.66
2023-05-02T18:07:38.452Z,74.88
2023-05-02T18:10:07.864Z,75.62
2023-05-02T18:12:36.334Z,75.71
2023-05-02T18:15:06.017Z,76.22
2023-05-02T18:17:35.086Z,74.50
2023-05-02T18:20:06.489Z,71.94
2023-05-02T18:22:35.693Z,70.50
2023-05-02T18:25:04.600Z,71.54
2023-05-02T18:27:34.268Z,73.37
2023-05-02T18:30:03.749Z,76.66
2023-05-02T18:32:35.208Z,76.65
2023-05-02T18:35:09.784Z,74.95
2023-05-02T18:37:38.212Z,75.19
2023-05-02T18:40:11.321Z,74.26
2023-05-02T18:42:43.061Z,74.38
2023-05-02T18:45:11.857Z,75.02
2023-05-02T18:47:42.007Z,75.91
2023-05-02T18:50:10.298Z,75.81
2023-05-02T18:52:40.282Z,75.22
2023-05-02T18:55:08.949Z,76.07
2023-05-02T18:57:40.284Z,75.29
2023-05-02T19:00:09.512Z,76.51
2023-05-02T19:02:38.369Z,77.02
2023-05-02T19:05:10.922Z,76.64
2023-05-02T19:07:42.596Z,78.01
2023-05-02T19:10:11.421Z,77.80
2023-05-02T19:12:41.841Z,77.95
2023-05-02T19:15:11.767Z,78.14
2023-05-02T19:17:41.349Z,77.38
2023-05-02T19:20:10.767Z,78.18
2023-05-02T19:22:39.174Z,78.43
2023-05-02T19:25:09.608Z,80.35
2023-05-02T19:27:38.487Z,81.28
2023-05-02T19:30:13.633Z,81.73
2023-05-02T19:32:42.528Z,81.88
2023-05-02T19:35:11.389Z,82.46
2023-05-02T19:37:39.816Z,83.42
2023-05-02T19:40:08.865Z,82.96
2023-05-02T19:42:37.661Z,83.62
2023-05-02T19:45:06.719Z,83.87
2023-05-02T19:47:35.501Z,84.21
2023-05-02T19:50:04.806Z,84.88
2023-05-02T19:52:34.936Z,84.25
2023-05-02T19:55:03.841Z,87.04
2023-05-02T19:57:32.318Z,88.18
2023-05-02T20:00:00.734Z,89.79
2023-05-02T20:02:29.565Z,89.97
2023-05-02T20:04:58.342Z,90.29
2023-05-02T20:07:26.406Z,92.67
2023-05-02T20:09:55.008Z,94.70
2023-05-02T20:12:24.299Z,95.82
2023-05-02T20:14:52.582Z,97.10
2023-05-02T20:17:20.982Z,97.37
2023-05-02T20:19:49.701Z,96.13
2023-05-02T20:22:18.389Z,94.31
2023-05-02T20:24:46.441Z,93.68
2023-05-02T20:27:14.921Z,96.54
2023-05-02T20:29:43.485Z,97.01
2023-05-02T20:32:11.853Z,96.36
2023-05-02T20:34:40.755Z,93.96
2023-05-02T20:37:10.306Z,93.31
2023-05-02T20:39:38.458Z,94.75
2023-05-02T20:42:07.027Z,97.24
2023-05-02T20:44:36.590Z,98.92
2023-05-02T20:47:04.773Z,99.30
2023-05-02T20:49:33.712Z,98.34
2023-05-02T20:52:05.863Z,92.17
2023-05-02T20:54:34.669Z,89.64
2023-05-02T20:57:03.721Z,89.88
2023-05-02T20:59:32.141Z,92.27
2023-05-02T21:02:00.783Z,96.65
2023-05-02T21:04:28.884Z,97.18
2023-05-02T21:06:57.491Z,100.00
2023-05-02T21:09:26.170Z,100.00
2023-05-02T21:11:54.510Z,100.00
2023-05-02T21:14:24.942Z,100.00
2023-05-02T21:16:53.711Z,100.00
2023-05-02T21:19:22.286Z,100.00
2023-05-02T21:21:50.580Z,100.00
2023-05-02T21:24:19.044Z,100.00
2023-05-02T21:26:47.222Z,100.00
2023-05-02T21:29:15.589Z,100.00
2023-05-02T21:31:46.359Z,100.00
2023-05-02T21:34:14.821Z,100.00
2023-05-02T21:36:43.455Z,100.00
2023-05-02T21:39:12.060Z,100.00
2023-05-02T21:41:40.659Z,100.00
2023-05-02T21:44:11.214Z,100.00
2023-05-02T21:46:40.851Z,100.00
2023-05-02T21:49:08.981Z,100.00
2023-05-02T21:51:40.915Z,100.00
2023-05-02T21:54:09.420Z,100.00
2023-05-02T21:56:37.830Z,100.00
2023-05-02T21:59:06.633Z,100.00
2023-05-02T22:01:35.150Z,100.00
2023-05-02T22:04:03.648Z,100.00
2023-05-02T22:06:33.806Z,100.00
2023-05-02T22:09:02.352Z,100.00
2023-05-02T22:11:32.250Z,100.00
2023-05-02T22:14:00.739Z,100.00
2023-05-02T22:16:28.785Z,100.00
2023-05-02T22:18:58.090Z,100.00
2023-05-02T22:21:27.458Z,100.00
2023-05-02T22:23:56.446Z,100.00
2023-05-02T22:26:25.144Z,100.00
2023-05-02T22:28:53.818Z,100.00
2023-05-02T22:31:22.533Z,100.00
2023-05-02T22:33:51.227Z,100.00
2023-05-02T22:36:20.477Z,100.00
2023-05-02T22:38:48.682Z,100.00
2023-05-02T22:41:17.143Z,100.00
2023-05-02T22:43:45.888Z,100.00
2023-05-02T22:46:14.388Z,100.00
2023-05-02T22:48:42.946Z,100.00
2023-05-02T22:51:11.216Z,100.00
2023-05-02T22:53:40.113Z,100.00
2023-05-02T22:56:08.627Z,100.00
2023-05-02T22:58:36.903Z,100.00
2023-05-02T23:01:05.116Z,100.00
2023-05-02T23:03:34.145Z,100.00
2023-05-02T23:06:03.262Z,100.00
2023-05-02T23:08:31.443Z,100.00
2023-05-02T23:10:59.947Z,100.00
2023-05-02T23:13:28.829Z,100.00
2023-05-02T23:15:57.157Z,100.00
2023-05-02T23:18:25.725Z,100.00
2023-05-02T23:20:54.661Z,100.00
2023-05-02T23:23:22.840Z,100.00
2023-05-02T23:25:51.421Z,100.00
2023-05-02T23:28:20.144Z,100.00
2023-05-02T23:30:48.626Z,100.00
2023-05-02T23:33:17.309Z,100.00
2023-05-02T23:35:45.776Z,100.00
2023-05-02T23:38:14.093Z,100.00
2023-05-02T23:40:42.985Z,100.00
2023-05-02T23:43:13.519Z,100.00
2023-05-02T23:45:41.776Z,100.00
2023-05-02T23:48:10.147Z,100.00
2023-05-02T23:50:38.683Z,100.00
2023-05-02T23:53:07.671Z,100.00
2023-05-02T23:55:36.529Z,100.00
2023-05-02T23:58:05.524Z,100.00
